Flight Track Log - Related Links

Times and Time Zones

All times are in EDT time to prevent confusion due to time zone crossing. See the TYR920 flight status page for this flight to view local times or setup timezone preferences in your user account.

Time Position Orientation Groundspeed Altitude Reporting Facility
EDT Latitude Longitude Course Direction KTS MPH feet Rate Location/Type
Sun 02:32:00 AM 47.8455 13.5121 81° East  Level Estimated
Sun 02:33:00 AM 47.8556 13.6138 81° East  Level Estimated
Sun 02:34:00 AM 47.8657 13.7155 82° East  Level Estimated
Sun 02:35:00 AM 47.8757 13.8173 82° East  Level Estimated
Sun 02:36:00 AM 47.8856 13.9191 82° East  Level Estimated
Sun 02:37:00 AM 47.8954 14.0209 82° East  Level Estimated
Sun 02:38:00 AM 47.9051 14.1228 82° East  Level Estimated
Sun 02:39:00 AM 47.9147 14.2247 82° East  Level Estimated
Sun 02:40:00 AM 47.9242 14.3266 82° East  Level Estimated
Sun 02:41:00 AM 47.9337 14.4286 82° East  Level Estimated
Sun 02:42:00 AM 47.9430 14.5306 82° East  Level Estimated
Sun 02:43:00 AM 47.9523 14.6327 82° East  Level Estimated
Sun 02:44:00 AM 47.9614 14.7348 82° East  Level Estimated
Sun 02:45:00 AM 47.9705 14.8369 82° East  Level Estimated
Sun 02:46:00 AM 47.9795 14.9391 82° East  Level Estimated
Sun 02:47:00 AM 47.9884 15.0413 83° East  Level Estimated
Sun 02:48:00 AM 47.9972 15.1435 83° East  Level Estimated
Sun 02:49:00 AM 48.0059 15.2458 83° East  Level Estimated
Sun 02:50:00 AM 48.0145 15.3481 83° East  Level Estimated
Sun 02:51:00 AM 48.0230 15.4504 83° East  Level Estimated
Sun 02:52:00 AM 48.0315 15.5528 83° East  Level Estimated
Sun 02:53:00 AM 48.0398 15.6552 83° East  Level Estimated
Sun 02:54:00 AM 48.0481 15.7577 83° East  Level Estimated
Sun 02:55:00 AM 48.0563 15.8601 83° East  Level Estimated
Sun 02:56:00 AM 48.0644 15.9626 83° East  Level Estimated
Sun 02:57:00 AM 48.0723 16.0652 83° East  Level Estimated
Sun 02:58:00 AM 48.0802 16.1677 83° East  Level Estimated
Sun 02:59:00 AM 48.0880 16.2703 83° East  Level Estimated
Sun 03:00:00 AM 48.0957 16.3730 84° East  Level Estimated
Sun 03:01:00 AM 48.1034 16.4756 84° East  Level Estimated
Sun 03:02:00 AM 48.1103 16.5697 84° East  Level Estimated
Sun 03:03:00 AM 48.1103 16.5697 146° Southeast  Level Estimated
Sun 03:04:00 AM 48.1103 16.5697 146° Southeast  Level Estimated
Sun 03:05:00 AM 48.1103 16.5697 146° Southeast  Level Estimated
Sun 03:06:00 AM 48.1103 16.5697 146° Southeast  Level Estimated
Sun 03:07:00 AM 48.1103 16.5697 146° Southeast  Level Estimated
Sun 03:08:00 AM 48.1103 16.5697 146° Southeast  Level Estimated
Sun 03:09:00 AM 48.1103 16.5697 146° Southeast  Level Estimated
Sun 03:10:00 AM 48.1103 16.5697 146° Southeast  Level Estimated
Sun 03:11:00 AM 48.1103 16.5697 146° Southeast  Level Estimated
Sun 03:12:00 AM 48.1103 16.5697 146° Southeast  Level Estimated

Login

Don't have an account? Register now (free) for customized features, flight alerts, and more!